Time;durP1;ratioP1;P1;durP2;ratioP2;P2;SDS_P1;SDS_P2;PMS_P1;PMS_P2;Temp;Humidity;BMP_temperature;BMP_pressure;BME280_temperature;BME280_humidity;BME280_pressure;Samples;Min_cycle;Max_cycle;Signal;HPM_P1;HPM_P2
2023/09/26 00:00:32;;;;;;;7.18;4.50;;;15.70;99.90;;;;;;5069389;28;20052;-70
2023/09/26 00:03:01;;;;;;;9.32;5.28;;;15.70;99.90;;;;;;5025992;28;20036;-69
2023/09/26 00:05:27;;;;;;;8.57;5.15;;;15.60;99.90;;;;;;5047351;28;20503;-69
2023/09/26 00:08:03;;;;;;;9.32;5.03;;;15.60;99.90;;;;;;5057890;28;20052;-69
2023/09/26 00:10:32;;;;;;;8.43;5.28;;;15.60;99.90;;;;;;5050926;28;20044;-69
2023/09/26 00:12:57;;;;;;;7.57;5.32;;;15.50;99.90;;;;;;5038537;28;20055;-69
2023/09/26 00:15:23;;;;;;;7.28;5.05;;;15.50;99.90;;;;;;5059272;28;20045;-70
2023/09/26 00:17:53;;;;;;;8.10;5.03;;;15.50;99.90;;;;;;5063713;28;20393;-69
2023/09/26 00:20:20;;;;;;;11.15;5.25;;;15.50;99.90;;;;;;5047638;28;20036;-69
2023/09/26 00:22:46;;;;;;;7.78;5.07;;;15.50;99.90;;;;;;5026164;28;20113;-70
2023/09/26 00:25:12;;;;;;;9.10;5.38;;;15.50;99.90;;;;;;5055654;28;20293;-69
2023/09/26 00:27:37;;;;;;;8.48;5.30;;;15.50;99.90;;;;;;5063374;28;20665;-69
2023/09/26 00:30:03;;;;;;;7.55;5.13;;;15.40;99.90;;;;;;5060190;28;20036;-69
2023/09/26 00:32:32;;;;;;;7.72;5.13;;;15.40;99.90;;;;;;5037470;28;20106;-70
2023/09/26 00:34:57;;;;;;;9.43;4.93;;;15.40;99.90;;;;;;5041136;28;20049;-69
2023/09/26 00:37:23;;;;;;;8.65;5.05;;;15.40;99.90;;;;;;5067732;28;20090;-69
2023/09/26 00:39:54;;;;;;;8.18;5.72;;;15.40;99.90;;;;;;5061711;28;20038;-70
2023/09/26 00:42:19;;;;;;;6.95;4.97;;;15.40;99.90;;;;;;5058503;28;20043;-69
2023/09/26 00:44:48;;;;;;;7.72;5.70;;;15.30;99.90;;;;;;5050779;28;20492;-69
2023/09/26 00:47:15;;;;;;;9.73;5.45;;;15.30;99.90;;;;;;5037465;28;20562;-69
2023/09/26 00:49:41;;;;;;;9.20;5.10;;;15.30;99.90;;;;;;5023984;28;20052;-69
2023/09/26 00:52:07;;;;;;;8.45;5.65;;;15.30;99.90;;;;;;5061273;28;20036;-69
2023/09/26 00:54:33;;;;;;;9.95;5.40;;;15.30;99.90;;;;;;5044838;28;20044;-69
2023/09/26 00:56:59;;;;;;;;;;;15.20;99.90;;;;;;5058642;28;20056;-69
2023/09/26 00:59:25;;;;;;;9.30;5.40;;;15.20;99.90;;;;;;5033623;28;20354;-70
2023/09/26 01:01:51;;;;;;;8.95;5.88;;;15.20;99.90;;;;;;5046662;28;20510;-69
2023/09/26 01:04:18;;;;;;;7.55;5.13;;;15.20;99.90;;;;;;5046486;28;20040;-69
2023/09/26 01:06:44;;;;;;;8.43;5.65;;;15.10;99.90;;;;;;5045040;28;20489;-69
2023/09/26 01:09:11;;;;;;;10.60;6.18;;;15.10;99.90;;;;;;5027088;28;20519;-69
2023/09/26 01:11:38;;;;;;;9.90;5.80;;;15.10;99.90;;;;;;5041949;28;20131;-70
2023/09/26 01:14:03;;;;;;;9.30;5.97;;;15.00;99.90;;;;;;5039309;28;20585;-70
2023/09/26 01:16:29;;;;;;;10.55;6.22;;;15.00;99.90;;;;;;5039517;28;20174;-69
2023/09/26 01:18:55;;;;;;;10.35;6.35;;;15.00;99.90;;;;;;5048688;28;20049;-69
2023/09/26 01:21:23;;;;;;;10.68;6.65;;;15.00;99.90;;;;;;5041438;28;20115;-69
2023/09/26 01:23:57;;;;;;;9.18;6.85;;;15.00;99.90;;;;;;5045363;28;20263;-70
2023/09/26 01:26:23;;;;;;;9.30;5.97;;;15.00;99.90;;;;;;5059347;28;20056;-70
2023/09/26 01:28:49;;;;;;;11.60;6.28;;;15.00;99.90;;;;;;5042161;28;20032;-69
2023/09/26 01:31:18;;;;;;;13.88;6.00;;;15.00;99.90;;;;;;5042099;28;20032;-69
2023/09/26 01:33:44;;;;;;;8.50;5.90;;;15.00;99.90;;;;;;5035746;28;20059;-69
2023/09/26 01:36:09;;;;;;;11.55;7.22;;;14.90;99.90;;;;;;5057044;28;20504;-70
2023/09/26 01:38:35;;;;;;;8.90;6.25;;;14.90;99.90;;;;;;5060528;28;20041;-69
2023/09/26 01:41:06;;;;;;;9.02;5.60;;;14.80;99.90;;;;;;5042165;28;20044;-69
2023/09/26 01:43:32;;;;;;;10.65;6.30;;;14.80;99.90;;;;;;5067483;28;20047;-69
2023/09/26 01:46:00;;;;;;;9.43;6.15;;;14.80;99.90;;;;;;5058531;28;20435;-70
2023/09/26 01:48:26;;;;;;;8.35;5.60;;;14.80;99.90;;;;;;5043225;28;20060;-69
2023/09/26 01:50:51;;;;;;;9.10;6.47;;;14.70;99.90;;;;;;5042161;28;20408;-70
2023/09/26 01:53:18;;;;;;;8.68;5.60;;;14.70;99.90;;;;;;5060693;28;20048;-69
2023/09/26 01:55:44;;;;;;;10.75;6.35;;;14.60;99.90;;;;;;5041894;28;20040;-69
2023/09/26 01:58:09;;;;;;;8.25;5.90;;;14.60;99.90;;;;;;5026476;28;20185;-69
2023/09/26 02:00:35;;;;;;;7.78;5.40;;;14.60;99.90;;;;;;5063186;28;20127;-69
2023/09/26 02:03:01;;;;;;;8.10;5.75;;;14.60;99.90;;;;;;5063858;28;20043;-69
2023/09/26 02:05:29;;;;;;;9.65;6.80;;;14.50;99.90;;;;;;5044663;28;20333;-69
2023/09/26 02:07:57;;;;;;;8.52;5.30;;;14.40;99.90;;;;;;5056489;28;20361;-70
2023/09/26 02:10:23;;;;;;;9.07;6.15;;;14.40;99.90;;;;;;5063113;28;20146;-69
2023/09/26 02:12:50;;;;;;;9.23;5.82;;;14.40;99.90;;;;;;5028259;28;20044;-69
2023/09/26 02:15:16;;;;;;;10.73;6.13;;;14.40;99.90;;;;;;5026897;28;20052;-69
2023/09/26 02:17:44;;;;;;;9.80;5.85;;;14.30;99.90;;;;;;5062496;28;20389;-69
2023/09/26 02:20:14;;;;;;;9.70;6.82;;;14.30;99.90;;;;;;5043597;28;20056;-69
2023/09/26 02:22:50;;;;;;;10.38;6.40;;;14.30;99.90;;;;;;5064266;28;20415;-70
2023/09/26 02:25:20;;;;;;;8.95;5.95;;;14.30;99.90;;;;;;5034836;28;20055;-69
2023/09/26 02:27:46;;;;;;;9.27;6.35;;;14.20;99.90;;;;;;5045103;28;20269;-69
2023/09/26 02:30:18;;;;;;;9.85;6.50;;;14.30;99.90;;;;;;5044420;28;20056;-69
2023/09/26 02:32:44;;;;;;;9.85;6.80;;;14.30;99.90;;;;;;5047789;28;20079;-70
2023/09/26 02:35:15;;;;;;;10.65;6.03;;;14.20;99.90;;;;;;5064376;28;20953;-69
2023/09/26 02:37:44;;;;;;;9.52;6.47;;;14.20;99.90;;;;;;5061835;28;20051;-69
2023/09/26 02:40:10;;;;;;;11.23;7.00;;;14.20;99.90;;;;;;5066490;28;20044;-69
2023/09/26 02:42:38;;;;;;;10.23;6.72;;;14.20;99.90;;;;;;5057902;28;20036;-69
2023/09/26 02:45:04;;;;;;;9.68;6.45;;;14.10;99.90;;;;;;5029792;28;20044;-69
2023/09/26 02:47:30;;;;;;;11.02;7.20;;;14.20;99.90;;;;;;5041369;28;20155;-70
2023/09/26 02:49:56;;;;;;;9.77;6.45;;;14.20;99.90;;;;;;5065479;28;20314;-69
2023/09/26 02:52:23;;;;;;;13.68;7.00;;;14.20;99.90;;;;;;5045067;28;20469;-69
2023/09/26 02:54:49;;;;;;;11.20;7.05;;;14.20;99.90;;;;;;5048978;28;20040;-69
2023/09/26 02:57:17;;;;;;;14.38;7.03;;;14.20;99.90;;;;;;5043410;28;20049;-69
2023/09/26 02:59:43;;;;;;;9.68;6.80;;;14.10;99.90;;;;;;5044446;28;20181;-70
2023/09/26 03:02:08;;;;;;;10.45;7.05;;;14.10;99.90;;;;;;5066237;28;20119;-70
2023/09/26 03:04:34;;;;;;;12.75;7.28;;;14.10;99.90;;;;;;5031750;28;20121;-69
2023/09/26 03:07:00;;;;;;;10.85;7.03;;;14.10;99.90;;;;;;5056987;28;20043;-69
2023/09/26 03:09:28;;;;;;;8.82;6.35;;;14.00;99.90;;;;;;5068514;28;20089;-70
2023/09/26 03:11:57;;;;;;;13.07;6.75;;;14.00;99.90;;;;;;5067829;28;20501;-69
2023/09/26 03:14:23;;;;;;;10.65;7.13;;;14.00;99.90;;;;;;5050497;28;20524;-69
2023/09/26 03:16:51;;;;;;;11.25;6.40;;;14.00;99.90;;;;;;5046994;28;20045;-69
2023/09/26 03:19:20;;;;;;;10.70;7.15;;;14.00;99.90;;;;;;5046579;28;20047;-69
2023/09/26 03:21:46;;;;;;;8.90;6.53;;;14.00;99.90;;;;;;5064384;28;20090;-69
2023/09/26 03:24:11;;;;;;;11.07;7.15;;;14.00;99.90;;;;;;5044662;28;20533;-70
2023/09/26 03:26:37;;;;;;;9.95;6.65;;;14.00;99.90;;;;;;5044883;28;20105;-69
2023/09/26 03:29:03;;;;;;;10.18;6.75;;;14.00;99.90;;;;;;5068348;28;20048;-69
2023/09/26 03:31:28;;;;;;;9.23;6.23;;;14.00;99.90;;;;;;5065510;28;20040;-70
2023/09/26 03:33:54;;;;;;;10.10;6.63;;;14.00;99.90;;;;;;5065061;28;20288;-69
2023/09/26 03:36:20;;;;;;;10.87;6.33;;;14.00;99.90;;;;;;5063955;28;20036;-70
2023/09/26 03:38:45;;;;;;;10.18;6.78;;;14.00;99.90;;;;;;5043181;28;20381;-69
2023/09/26 03:41:11;;;;;;;12.13;7.00;;;13.90;99.90;;;;;;5065674;28;20044;-69
2023/09/26 03:43:36;;;;;;;8.93;6.00;;;13.90;99.90;;;;;;5063447;28;20360;-69
2023/09/26 03:46:04;;;;;;;9.13;6.78;;;13.90;99.90;;;;;;5042661;28;20296;-69
2023/09/26 03:48:33;;;;;;;10.68;6.13;;;13.90;99.90;;;;;;5054672;28;20067;-70
2023/09/26 03:51:10;;;;;;;11.25;5.95;;;13.90;99.90;;;;;;5055399;28;20044;-69
2023/09/26 03:53:40;;;;;;;8.93;6.43;;;13.80;99.90;;;;;;5049402;28;20116;-69
2023/09/26 03:56:06;;;;;;;10.52;7.10;;;13.80;99.90;;;;;;5066170;28;20431;-69
2023/09/26 03:58:38;;;;;;;8.02;5.75;;;13.80;99.90;;;;;;5048773;28;20041;-70
2023/09/26 04:01:12;;;;;;;9.77;6.88;;;13.80;99.90;;;;;;5040703;28;20113;-69
2023/09/26 04:03:43;;;;;;;15.40;6.22;;;13.80;99.90;;;;;;5061704;28;20250;-69
2023/09/26 04:06:09;;;;;;;9.77;6.78;;;13.80;99.90;;;;;;5030691;28;20044;-69
2023/09/26 04:08:35;;;;;;;;;;;13.70;99.90;;;;;;5037239;28;20049;-70
2023/09/26 04:11:04;;;;;;;10.18;6.88;;;13.70;99.90;;;;;;5058885;28;20028;-69
2023/09/26 04:13:32;;;;;;;10.73;6.75;;;13.70;99.90;;;;;;5057713;28;20032;-70
2023/09/26 04:16:02;;;;;;;8.73;6.10;;;13.70;99.90;;;;;;5063197;28;20062;-69
2023/09/26 04:18:28;;;;;;;11.88;6.97;;;13.80;99.90;;;;;;5042029;28;20055;-70
2023/09/26 04:20:55;;;;;;;10.65;6.97;;;13.80;99.90;;;;;;5048451;28;20036;-69
2023/09/26 04:23:21;;;;;;;10.10;6.60;;;13.80;99.90;;;;;;5038296;28;20047;-69
2023/09/26 04:25:47;;;;;;;10.38;7.13;;;13.80;99.90;;;;;;5042108;28;20032;-72
2023/09/26 04:28:12;;;;;;;11.48;7.95;;;13.80;99.90;;;;;;5042450;28;20047;-72
2023/09/26 04:30:39;;;;;;;11.75;7.95;;;13.90;99.90;;;;;;5043177;28;20033;-72
2023/09/26 04:33:06;;;;;;;12.77;7.55;;;13.90;99.90;;;;;;5045440;28;20135;-72
2023/09/26 04:35:32;;;;;;;11.35;7.20;;;14.00;99.90;;;;;;5062580;28;20573;-72
2023/09/26 04:37:58;;;;;;;14.90;7.95;;;13.90;99.90;;;;;;5045630;28;20044;-71
2023/09/26 04:40:23;;;;;;;10.95;7.05;;;14.00;99.90;;;;;;5062527;28;20037;-72
2023/09/26 04:42:49;;;;;;;10.30;7.35;;;14.00;99.90;;;;;;5046310;28;20162;-72
2023/09/26 04:45:15;;;;;;;10.15;6.88;;;14.00;99.90;;;;;;5042382;28;20072;-71
2023/09/26 04:47:41;;;;;;;12.50;7.50;;;14.10;99.90;;;;;;5044487;28;20075;-72
2023/09/26 04:50:07;;;;;;;;;;;14.10;99.90;;;;;;5045504;28;20068;-72
2023/09/26 04:52:36;;;;;;;10.32;6.65;;;14.00;99.90;;;;;;5043104;28;19923;-72
2023/09/26 04:55:04;;;;;;;10.50;7.20;;;14.00;99.90;;;;;;5043509;28;20146;-72
2023/09/26 04:57:33;;;;;;;11.85;7.38;;;14.00;99.90;;;;;;5043601;28;20090;-72
2023/09/26 05:00:08;;;;;;;12.02;7.57;;;14.00;99.90;;;;;;5060217;28;20040;-72
2023/09/26 05:02:38;;;;;;;10.02;6.70;;;14.00;99.90;;;;;;5030364;28;20040;-72
2023/09/26 05:05:04;;;;;;;13.65;6.75;;;14.00;99.90;;;;;;5045082;28;20044;-71
2023/09/26 05:07:30;;;;;;;11.20;7.35;;;14.00;99.90;;;;;;5026205;28;20609;-72
2023/09/26 05:09:57;;;;;;;10.90;6.82;;;13.90;99.90;;;;;;5058170;28;20044;-71
2023/09/26 05:12:22;;;;;;;11.70;7.90;;;14.00;99.90;;;;;;5017880;28;20040;-71
2023/09/26 05:14:48;;;;;;;12.50;8.48;;;13.90;99.90;;;;;;5061813;28;20044;-71
2023/09/26 05:17:14;;;;;;;11.27;7.93;;;13.90;99.90;;;;;;5043846;28;20140;-72
2023/09/26 05:19:39;;;;;;;11.43;8.07;;;14.00;99.90;;;;;;5059375;28;20158;-72
2023/09/26 05:22:05;;;;;;;12.77;8.25;;;13.90;99.90;;;;;;5044496;28;20032;-73
2023/09/26 05:24:31;;;;;;;12.65;7.93;;;13.90;99.90;;;;;;5040541;28;20489;-72
2023/09/26 05:26:56;;;;;;;10.87;7.97;;;13.90;99.90;;;;;;5066066;28;20037;-72
2023/09/26 05:29:35;;;;;;;17.50;8.40;;;13.90;99.90;;;;;;5065108;28;20269;-73
2023/09/26 05:32:01;;;;;;;12.05;7.68;;;13.90;99.90;;;;;;5031780;28;20297;-72
2023/09/26 05:34:27;;;;;;;10.10;7.72;;;13.90;99.90;;;;;;5040652;28;20033;-72
2023/09/26 05:36:52;;;;;;;11.52;8.00;;;13.90;99.90;;;;;;5041166;28;20520;-71
2023/09/26 05:39:18;;;;;;;16.38;7.97;;;13.90;99.90;;;;;;5040646;28;20098;-72
2023/09/26 05:41:43;;;;;;;13.03;7.90;;;13.90;99.90;;;;;;5063599;28;20106;-77
2023/09/26 05:44:11;;;;;;;11.00;7.65;;;13.90;99.90;;;;;;5040523;28;20282;-76
2023/09/26 05:46:37;;;;;;;10.73;7.85;;;13.80;99.90;;;;;;5039325;28;20048;-78
2023/09/26 05:49:02;;;;;;;14.52;8.55;;;13.90;99.90;;;;;;5036790;28;20039;-76
2023/09/26 05:51:28;;;;;;;13.63;7.53;;;13.90;99.90;;;;;;5042497;28;20060;-74
2023/09/26 05:53:54;;;;;;;13.63;8.17;;;13.90;99.90;;;;;;5028716;28;20380;-73
2023/09/26 05:56:19;;;;;;;12.98;8.70;;;13.90;99.90;;;;;;5036415;28;20142;-75
2023/09/26 05:58:47;;;;;;;14.25;8.60;;;13.90;99.90;;;;;;5038671;28;20080;-75
2023/09/26 06:01:15;;;;;;;15.07;9.63;;;13.90;99.90;;;;;;5056868;28;20044;-73
2023/09/26 06:03:41;;;;;;;11.52;7.97;;;13.90;99.90;;;;;;5059790;28;20165;-74
2023/09/26 06:06:07;;;;;;;11.05;8.77;;;14.00;99.90;;;;;;5039666;28;20481;-72
2023/09/26 06:08:35;;;;;;;;;;;14.00;99.90;;;;;;5027516;28;20124;-74
2023/09/26 06:11:02;;;;;;;15.10;8.75;;;14.00;99.90;;;;;;5043279;28;19927;-69
2023/09/26 06:13:28;;;;;;;12.02;8.20;;;14.00;99.90;;;;;;5057188;28;20115;-69
2023/09/26 06:15:54;;;;;;;14.38;8.73;;;14.00;99.90;;;;;;5043444;28;20136;-69
2023/09/26 06:18:20;;;;;;;13.90;8.95;;;14.10;99.90;;;;;;5062592;28;20048;-69
2023/09/26 06:20:45;;;;;;;15.97;9.70;;;14.00;99.90;;;;;;5063845;28;20550;-69
2023/09/26 06:23:12;;;;;;;14.25;8.98;;;14.20;99.90;;;;;;5055414;28;20307;-69
2023/09/26 06:25:38;;;;;;;12.55;8.43;;;14.20;99.90;;;;;;5057316;28;20036;-69
2023/09/26 06:28:04;;;;;;;15.57;8.60;;;14.30;99.90;;;;;;5057207;28;20041;-70
2023/09/26 06:30:29;;;;;;;15.30;9.45;;;14.30;99.90;;;;;;5035887;28;20791;-69
2023/09/26 06:33:01;;;;;;;11.88;8.38;;;14.40;99.90;;;;;;5043866;28;20052;-70
2023/09/26 06:35:30;;;;;;;14.70;8.55;;;14.40;99.90;;;;;;5059073;28;20048;-69
2023/09/26 06:38:07;;;;;;;11.77;8.25;;;14.40;99.90;;;;;;5053888;28;20037;-69
2023/09/26 06:40:33;;;;;;;12.93;8.82;;;14.50;99.90;;;;;;5042801;28;21115;-69
2023/09/26 06:43:02;;;;;;;13.45;8.50;;;14.50;99.90;;;;;;5063879;28;20427;-69
2023/09/26 06:45:29;;;;;;;15.07;8.70;;;14.50;99.90;;;;;;5051607;28;20072;-69
2023/09/26 06:47:58;;;;;;;18.10;9.10;;;14.60;99.90;;;;;;5063812;28;20264;-69
2023/09/26 06:50:23;;;;;;;24.58;10.73;;;14.60;99.90;;;;;;5065997;28;20043;-69
2023/09/26 06:52:49;;;;;;;19.98;11.15;;;14.70;99.90;;;;;;5063487;28;20516;-69
2023/09/26 06:55:15;;;;;;;18.93;9.50;;;14.70;99.90;;;;;;5044220;28;20121;-69
2023/09/26 06:57:41;;;;;;;17.67;8.88;;;14.70;99.90;;;;;;5062527;28;20289;-69
2023/09/26 07:00:12;;;;;;;15.50;8.20;;;14.80;99.90;;;;;;5064233;28;20055;-69
2023/09/26 07:02:40;;;;;;;18.08;8.50;;;14.70;99.90;;;;;;5053328;28;20055;-69
2023/09/26 07:05:07;;;;;;;15.63;9.30;;;14.80;99.90;;;;;;5028404;28;20064;-69
2023/09/26 07:07:34;;;;;;;13.25;7.88;;;14.80;99.90;;;;;;5055716;28;20085;-69
2023/09/26 07:10:00;;;;;;;13.48;8.32;;;14.90;99.90;;;;;;5064126;28;20415;-69
2023/09/26 07:12:26;;;;;;;12.48;7.85;;;14.90;99.90;;;;;;5047683;28;20075;-69
2023/09/26 07:14:52;;;;;;;15.15;8.15;;;15.00;99.90;;;;;;5050865;28;20103;-69
2023/09/26 07:17:18;;;;;;;17.48;8.77;;;15.00;99.90;;;;;;5061949;28;20049;-69
2023/09/26 07:19:44;;;;;;;12.20;8.18;;;15.00;99.90;;;;;;5049097;28;20053;-69
2023/09/26 07:22:10;;;;;;;13.43;8.45;;;15.00;99.90;;;;;;5063548;28;20058;-69
2023/09/26 07:24:36;;;;;;;16.65;8.43;;;15.10;99.90;;;;;;5066856;28;20044;-70
2023/09/26 07:27:02;;;;;;;14.20;8.15;;;15.10;99.90;;;;;;5025181;28;20136;-69
2023/09/26 07:29:27;;;;;;;17.83;8.68;;;15.10;99.90;;;;;;5065718;28;20040;-70
2023/09/26 07:31:54;;;;;;;11.85;8.15;;;15.10;99.90;;;;;;5059359;28;20083;-69
2023/09/26 07:34:20;;;;;;;13.38;9.05;;;15.20;99.90;;;;;;5050136;28;20051;-69
2023/09/26 07:36:46;;;;;;;17.92;9.07;;;15.20;99.90;;;;;;5044679;28;20049;-69
2023/09/26 07:39:16;;;;;;;;;;;15.20;99.90;;;;;;5042756;28;20036;-69
2023/09/26 07:41:41;;;;;;;18.05;8.85;;;15.20;99.90;;;;;;5051059;28;19960;-69
2023/09/26 07:44:07;;;;;;;15.60;8.60;;;15.20;99.90;;;;;;5027134;28;20406;-69
2023/09/26 07:46:34;;;;;;;12.15;8.10;;;15.20;99.90;;;;;;5057210;28;20425;-68
2023/09/26 07:49:00;;;;;;;14.45;8.95;;;15.20;99.90;;;;;;5069267;28;20074;-69
2023/09/26 07:51:26;;;;;;;14.60;9.20;;;15.20;99.90;;;;;;5065539;28;20045;-69
2023/09/26 07:53:51;;;;;;;13.63;8.35;;;15.20;99.90;;;;;;5059474;28;20491;-69
2023/09/26 07:56:18;;;;;;;12.90;8.60;;;15.30;99.90;;;;;;5045534;28;20502;-69
2023/09/26 07:58:43;;;;;;;16.42;8.18;;;15.30;99.90;;;;;;5049036;28;20501;-69
2023/09/26 08:01:09;;;;;;;13.75;8.48;;;15.40;99.90;;;;;;5059320;28;20113;-69
2023/09/26 08:03:38;;;;;;;13.45;8.57;;;15.40;99.90;;;;;;5044144;28;20040;-69
2023/09/26 08:06:06;;;;;;;15.40;8.15;;;15.40;99.90;;;;;;5044052;28;20388;-69
2023/09/26 08:08:32;;;;;;;16.33;8.07;;;15.50;99.90;;;;;;5050597;28;20052;-69
2023/09/26 08:11:08;;;;;;;;;;;15.50;99.90;;;;;;5051771;28;20348;-69
2023/09/26 08:13:35;;;;;;;13.70;7.82;;;15.60;99.90;;;;;;5046584;28;19923;-69
2023/09/26 08:16:01;;;;;;;13.23;8.13;;;15.60;99.90;;;;;;5071902;28;20084;-69
2023/09/26 08:18:27;;;;;;;10.88;7.85;;;15.70;99.90;;;;;;5069144;28;20044;-69
2023/09/26 08:20:55;;;;;;;11.95;7.95;;;15.70;99.90;;;;;;5064868;28;20095;-70
2023/09/26 08:23:21;;;;;;;13.25;8.25;;;15.70;99.90;;;;;;5051857;28;20585;-69
2023/09/26 08:25:47;;;;;;;15.77;9.93;;;15.80;99.90;;;;;;5049670;28;20198;-69
2023/09/26 08:28:13;;;;;;;13.27;8.48;;;15.80;99.90;;;;;;5048293;28;20131;-69
2023/09/26 08:30:38;;;;;;;13.25;8.55;;;15.80;99.90;;;;;;5045961;28;20068;-69
2023/09/26 08:33:04;;;;;;;11.35;7.68;;;15.80;99.90;;;;;;5065989;28;20155;-70
2023/09/26 08:35:33;;;;;;;11.80;7.55;;;15.80;99.90;;;;;;5069480;28;20517;-69
2023/09/26 08:37:58;;;;;;;9.73;6.93;;;15.90;99.90;;;;;;5042169;28;20510;-69
2023/09/26 08:40:27;;;;;;;11.02;6.72;;;15.90;99.90;;;;;;5045581;28;20040;-69
2023/09/26 08:42:57;;;;;;;13.30;7.05;;;15.90;99.90;;;;;;5028956;28;20044;-69
2023/09/26 08:45:25;;;;;;;12.20;7.32;;;16.00;99.90;;;;;;5063489;28;20075;-69
2023/09/26 08:47:54;;;;;;;11.38;7.47;;;16.10;99.90;;;;;;5059390;28;20067;-69
2023/09/26 08:50:24;;;;;;;12.85;7.47;;;16.20;99.90;;;;;;5043681;28;20432;-69
2023/09/26 08:52:50;;;;;;;11.27;7.20;;;16.20;99.90;;;;;;5050284;28;20550;-69
2023/09/26 08:55:15;;;;;;;11.98;8.32;;;16.30;99.90;;;;;;5062719;28;20113;-69
2023/09/26 08:57:42;;;;;;;15.20;7.47;;;16.30;99.90;;;;;;5059318;28;20044;-69
2023/09/26 09:00:09;;;;;;;11.70;7.05;;;16.30;99.90;;;;;;5057780;28;20544;-69
2023/09/26 09:02:35;;;;;;;14.60;7.80;;;16.40;99.90;;;;;;5064079;28;20643;-69
2023/09/26 09:05:01;;;;;;;11.52;7.47;;;16.40;99.90;;;;;;5063490;28;20041;-69
2023/09/26 09:07:27;;;;;;;13.05;6.90;;;16.40;99.90;;;;;;5045293;28;20501;-69
2023/09/26 09:10:10;;;;;;;12.23;7.45;;;16.50;99.90;;;;;;5045261;28;20048;-69
2023/09/26 09:12:37;;;;;;;17.55;7.47;;;16.50;99.90;;;;;;5047497;28;20500;-68
2023/09/26 09:15:23;;;;;;;11.50;7.40;;;16.50;99.90;;;;;;5072484;28;20040;-70
2023/09/26 09:17:52;;;;;;;10.23;6.53;;;16.60;99.90;;;;;;5043448;28;20049;-67
2023/09/26 09:20:32;;;;;;;12.45;7.15;;;16.70;99.90;;;;;;5049878;28;20043;-67
2023/09/26 09:23:04;;;;;;;9.75;6.55;;;16.90;99.90;;;;;;5064237;28;20080;-67
2023/09/26 09:25:38;;;;;;;11.13;6.78;;;17.00;99.90;;;;;;5047270;28;20504;-68
2023/09/26 09:28:06;;;;;;;11.90;7.78;;;17.10;99.90;;;;;;5045117;28;20496;-67
2023/09/26 09:30:43;;;;;;;12.38;7.40;;;17.10;99.90;;;;;;5047820;28;20399;-68
2023/09/26 09:33:09;;;;;;;11.63;6.40;;;17.20;99.90;;;;;;5062608;28;20119;-68
2023/09/26 09:35:36;;;;;;;14.13;7.28;;;17.20;99.90;;;;;;5061482;28;20093;-69
2023/09/26 09:38:02;;;;;;;12.85;6.82;;;17.30;99.90;;;;;;5061877;28;20067;-67
2023/09/26 09:40:28;;;;;;;11.45;7.45;;;17.30;99.90;;;;;;5052716;28;20505;-67
2023/09/26 09:42:54;;;;;;;11.65;6.13;;;17.40;99.90;;;;;;5058602;28;20151;-68
2023/09/26 09:45:19;;;;;;;10.70;5.90;;;17.50;99.90;;;;;;5037802;28;20044;-68
2023/09/26 09:47:46;;;;;;;11.70;6.38;;;17.60;99.90;;;;;;5062223;28;20164;-68
2023/09/26 09:50:13;;;;;;;11.07;6.28;;;17.60;99.90;;;;;;5065955;28;20541;-68
2023/09/26 09:52:47;;;;;;;8.73;6.05;;;17.70;99.90;;;;;;5059923;28;20037;-68
2023/09/26 09:55:19;;;;;;;9.88;6.45;;;17.80;99.90;;;;;;5046649;28;20287;-68
2023/09/26 09:57:50;;;;;;;10.95;6.03;;;17.80;99.90;;;;;;5039143;28;20036;-68
2023/09/26 10:00:19;;;;;;;10.70;6.10;;;18.00;99.90;;;;;;5034969;28;20075;-68
2023/09/26 10:02:46;;;;;;;9.55;5.88;;;18.10;99.90;;;;;;5045015;28;20125;-69
2023/09/26 10:05:14;;;;;;;10.43;5.53;;;18.30;99.90;;;;;;5063381;28;20123;-68
2023/09/26 10:07:44;;;;;;;10.02;5.97;;;18.40;99.90;;;;;;5063099;28;20131;-68
2023/09/26 10:10:12;;;;;;;10.90;5.68;;;18.70;99.90;;;;;;5038100;28;20045;-68
2023/09/26 10:12:39;;;;;;;10.38;5.18;;;18.70;99.90;;;;;;5065772;28;20111;-68
2023/09/26 10:15:11;;;;;;;8.18;4.63;;;18.80;99.90;;;;;;5065933;28;20044;-67
2023/09/26 10:17:39;;;;;;;9.35;5.47;;;18.80;99.90;;;;;;5062683;28;20041;-68
2023/09/26 10:20:09;;;;;;;12.65;6.28;;;18.80;99.90;;;;;;5045057;28;20127;-67
2023/09/26 10:22:35;;;;;;;11.75;5.97;;;18.80;99.90;;;;;;5064227;28;20488;-68
2023/09/26 10:25:02;;;;;;;;;;;18.80;99.90;;;;;;5063454;28;20408;-67
2023/09/26 10:27:30;;;;;;;8.73;4.90;;;18.80;99.90;;;;;;5043077;28;19987;-68
2023/09/26 10:29:57;;;;;;;9.88;5.43;;;18.80;99.90;;;;;;5046536;28;20644;-67
2023/09/26 10:32:34;;;;;;;9.45;4.75;;;18.90;99.90;;;;;;5065639;28;20460;-67
2023/09/26 10:35:22;;;;;;;10.07;5.47;;;18.90;99.90;;;;;;5045431;28;20094;-67
2023/09/26 10:37:50;;;;;;;11.68;4.82;;;19.00;99.90;;;;;;5043122;28;20519;-68
2023/09/26 10:40:16;;;;;;;8.68;4.60;;;19.00;99.90;;;;;;5048972;28;20052;-67
2023/09/26 10:42:49;;;;;;;10.13;4.95;;;19.10;99.90;;;;;;5043572;28;20044;-67
2023/09/26 10:45:16;;;;;;;9.73;4.70;;;19.10;99.90;;;;;;5046063;28;20040;-67
2023/09/26 10:47:42;;;;;;;7.93;4.22;;;19.10;99.90;;;;;;5064490;28;20041;-67
2023/09/26 10:50:12;;;;;;;6.10;3.78;;;19.20;99.90;;;;;;5047423;28;20054;-68
2023/09/26 10:52:46;;;;;;;7.97;4.03;;;19.20;99.90;;;;;;5064414;28;20508;-68
2023/09/26 10:55:21;;;;;;;7.55;4.50;;;19.20;99.90;;;;;;5066198;28;20369;-67
2023/09/26 10:57:50;;;;;;;8.90;4.18;;;19.20;99.90;;;;;;5052141;28;20071;-68
2023/09/26 11:00:17;;;;;;;9.23;4.60;;;19.20;99.90;;;;;;5046951;28;20257;-68
2023/09/26 11:02:45;;;;;;;8.32;4.40;;;19.20;99.90;;;;;;5048383;28;20123;-68
2023/09/26 11:05:12;;;;;;;9.68;4.60;;;19.30;99.90;;;;;;5049218;28;20048;-68
2023/09/26 11:07:39;;;;;;;6.78;4.10;;;19.30;99.90;;;;;;5045670;28;20126;-68
2023/09/26 11:10:10;;;;;;;8.82;4.22;;;19.40;99.90;;;;;;5064234;28;20505;-68
2023/09/26 11:12:37;;;;;;;6.07;3.33;;;19.40;99.90;;;;;;5050050;28;20086;-68
2023/09/26 11:15:03;;;;;;;9.73;4.55;;;19.40;99.90;;;;;;5048773;28;20460;-67
2023/09/26 11:17:29;;;;;;;;;;;19.50;99.90;;;;;;5045127;28;20094;-68
2023/09/26 11:19:59;;;;;;;7.25;4.20;;;19.60;99.90;;;;;;5066808;28;19917;-67
2023/09/26 11:22:25;;;;;;;7.30;4.13;;;19.60;99.90;;;;;;5043863;28;20075;-68
2023/09/26 11:25:05;;;;;;;8.80;4.57;;;19.80;99.90;;;;;;5067445;28;20047;-68
2023/09/26 11:27:30;;;;;;;9.75;4.00;;;20.00;99.90;;;;;;5066416;28;20112;-68
2023/09/26 11:30:00;;;;;;;10.48;4.25;;;20.10;99.90;;;;;;5053365;28;20095;-68
2023/09/26 11:32:25;;;;;;;7.55;3.63;;;20.20;99.90;;;;;;5066489;28;20459;-67
2023/09/26 11:34:51;;;;;;;6.13;3.50;;;20.20;99.90;;;;;;5067031;28;20098;-67
2023/09/26 11:37:17;;;;;;;7.38;3.53;;;20.30;99.90;;;;;;5057743;28;20055;-67
2023/09/26 11:39:51;;;;;;;7.50;3.38;;;20.40;99.90;;;;;;5047270;28;20036;-68
2023/09/26 11:42:17;;;;;;;7.68;3.20;;;20.50;99.90;;;;;;5031596;28;20048;-67
2023/09/26 11:44:56;;;;;;;6.82;3.38;;;20.50;99.90;;;;;;5066879;28;20447;-68
2023/09/26 11:47:24;;;;;;;5.85;3.13;;;20.60;99.90;;;;;;5066258;28;20052;-67
2023/09/26 11:49:51;;;;;;;8.57;3.92;;;20.60;99.90;;;;;;5062787;28;20123;-67
2023/09/26 11:52:18;;;;;;;7.72;3.72;;;20.60;99.90;;;;;;5064680;28;20416;-67
2023/09/26 11:54:46;;;;;;;8.73;3.35;;;20.70;99.90;;;;;;5049386;28;20054;-67
2023/09/26 11:57:12;;;;;;;23.73;5.88;;;20.80;99.90;;;;;;5061976;28;20049;-67
2023/09/26 11:59:38;;;;;;;;;;;20.90;99.90;;;;;;5064593;28;20033;-68
2023/09/26 12:02:04;;;;;;;5.38;3.15;;;20.90;99.90;;;;;;5055518;28;20288;-67
2023/09/26 12:04:31;;;;;;;;;;;21.10;99.90;;;;;;5060651;28;20028;-67
2023/09/26 12:06:57;;;;;;;8.73;4.22;;;21.20;99.90;;;;;;5064565;28;20383;-67
2023/09/26 12:09:23;;;;;;;;;;;21.40;99.90;;;;;;5031109;28;20072;-67
2023/09/26 12:11:51;;;;;;;6.20;3.55;;;21.50;99.90;;;;;;5059414;28;19956;-67
2023/09/26 12:14:18;;;;;;;6.63;3.70;;;21.70;99.90;;;;;;5045360;28;20044;-67
2023/09/26 12:16:44;;;;;;;8.93;4.00;;;21.90;99.90;;;;;;5066737;28;20155;-68
2023/09/26 12:19:11;;;;;;;9.13;4.22;;;21.90;99.90;;;;;;5071040;28;20036;-67
2023/09/26 12:21:37;;;;;;;8.13;3.72;;;22.10;99.90;;;;;;5029896;28;20044;-66
2023/09/26 12:24:03;;;;;;;5.85;3.53;;;22.20;99.90;;;;;;5064936;28;20458;-67
2023/09/26 12:26:29;;;;;;;7.00;3.80;;;22.30;99.90;;;;;;5064278;28;20040;-68
2023/09/26 12:28:55;;;;;;;;;;;22.50;99.90;;;;;;5068419;28;20416;-67
2023/09/26 12:31:21;;;;;;;4.05;2.92;;;22.60;99.90;;;;;;5047712;28;20334;-67
2023/09/26 12:33:46;;;;;;;;;;;22.70;99.90;;;;;;5067511;28;20051;-66
2023/09/26 12:36:12;;;;;;;5.45;3.17;;;22.70;99.90;;;;;;5061898;28;19923;-67
2023/09/26 12:38:37;;;;;;;;;;;22.60;99.90;;;;;;5069626;28;20046;-67
2023/09/26 12:41:03;;;;;;;6.32;3.75;;;22.50;99.90;;;;;;5064352;28;19917;-67
2023/09/26 12:43:29;;;;;;;;;;;22.40;99.90;;;;;;5046000;28;20040;-67
2023/09/26 12:45:54;;;;;;;6.90;3.40;;;22.40;99.90;;;;;;5063388;28;19916;-67